Hillsdale, Mississippi
Current Conditions -  °F | °C
As of 3:15 AM on Wednesday 22 Oct 2014 (Local Time) from KBXA Reporting Station
NA  
Wind Chill: 55°   Ceiling: NA
Heat Index: 55°   Visibility: 10mi
Dew Point: 52°   Wind: 3mph
Humidity: 89%   Direction: 30°NNE
Pressure: 30.05"   Gusts: NA
Location:  30.8781°N, 89.5858°W
Report Text: KBXA 220815Z AUTO 03003KT 10SM 13/11 A3005 RMK AO2 T01260109
Loading
Personal Weather Stations






























Interactive Weather Map
Tropical Storm Tracking
New forecast layout! Learn more

10-Day Weather Forecast

Advertisements
Track Severe Weather on mobile